createdAt,value
2018-07-31T00:02:19.739Z,98019.50
2018-07-31T00:04:51.578Z,98018.67
2018-07-31T00:07:23.434Z,98019.50
2018-07-31T00:09:55.086Z,98022.16
2018-07-31T00:12:28.240Z,98024.00
2018-07-31T00:14:59.939Z,98026.02
2018-07-31T00:17:31.707Z,98025.00
2018-07-31T00:20:03.497Z,98028.67
2018-07-31T00:22:35.215Z,98020.36
2018-07-31T00:25:06.993Z,98026.69
2018-07-31T00:27:38.686Z,98023.20
2018-07-31T00:30:11.933Z,98029.68
2018-07-31T00:32:43.687Z,98027.02
2018-07-31T00:35:15.464Z,98025.36
2018-07-31T00:37:47.167Z,98020.72
2018-07-31T00:40:18.996Z,98018.70
2018-07-31T00:42:50.704Z,98022.05
2018-07-31T00:45:22.590Z,98015.61
2018-07-31T00:47:54.470Z,98024.42
2018-07-31T00:50:26.249Z,98021.80
2018-07-31T00:52:57.917Z,98025.84
2018-07-31T00:55:29.624Z,98025.10
2018-07-31T00:58:00.825Z,98029.13
2018-07-31T01:00:32.619Z,98031.17
2018-07-31T01:03:04.146Z,98026.85
2018-07-31T01:05:35.866Z,98028.86
2018-07-31T01:08:07.746Z,98028.04
2018-07-31T01:10:39.620Z,98025.88
2018-07-31T01:13:11.423Z,98025.27
2018-07-31T01:15:43.079Z,98030.26
2018-07-31T01:18:14.969Z,98032.27
2018-07-31T01:20:49.443Z,98033.27
2018-07-31T01:23:21.573Z,98036.83
2018-07-31T01:25:53.462Z,98031.00
2018-07-31T01:28:25.149Z,98036.00
2018-07-31T01:30:56.940Z,98039.66
2018-07-31T01:33:28.698Z,98049.98
2018-07-31T01:36:00.549Z,98059.61
2018-07-31T01:38:32.197Z,98071.59
2018-07-31T01:41:04.059Z,98093.55
2018-07-31T01:43:35.874Z,98122.53
2018-07-31T01:46:07.643Z,98124.57
2018-07-31T01:48:40.352Z,98113.83
2018-07-31T01:51:12.063Z,98104.47
2018-07-31T01:53:43.537Z,98090.28
2018-07-31T01:56:15.346Z,98071.99
2018-07-31T01:58:47.075Z,98080.80
2018-07-31T02:01:19.135Z,98076.31
2018-07-31T02:03:50.600Z,98079.47
2018-07-31T02:06:27.909Z,98074.03
2018-07-31T02:08:59.851Z,98070.54
2018-07-31T02:11:31.952Z,98059.75
2018-07-31T02:14:04.180Z,98056.27
2018-07-31T02:16:35.919Z,98061.44
2018-07-31T02:19:07.740Z,98051.33
2018-07-31T02:21:39.433Z,98057.44
2018-07-31T02:24:11.246Z,98051.67
2018-07-31T02:26:42.949Z,98050.84
2018-07-31T02:29:15.197Z,98057.50
2018-07-31T02:31:55.867Z,98052.17
2018-07-31T02:34:27.965Z,98050.52
2018-07-31T02:36:59.486Z,98052.85
2018-07-31T02:39:31.227Z,98052.03
2018-07-31T02:42:02.903Z,98053.06
2018-07-31T02:44:34.781Z,98055.89
2018-07-31T02:47:06.457Z,98062.22
2018-07-31T02:49:38.198Z,98057.91
2018-07-31T02:52:09.978Z,98058.91
2018-07-31T02:54:41.766Z,98052.43
2018-07-31T02:57:13.467Z,98059.08
2018-07-31T02:59:45.387Z,98065.73
2018-07-31T03:02:17.203Z,98067.05
2018-07-31T03:04:49.028Z,98061.95
2018-07-31T03:07:20.484Z,98062.62
2018-07-31T03:09:52.388Z,98062.29
2018-07-31T03:12:24.164Z,98068.94
2018-07-31T03:14:55.968Z,98067.94
2018-07-31T03:17:27.758Z,98064.63
2018-07-31T03:19:59.527Z,98064.67
2018-07-31T03:22:31.317Z,98060.36
2018-07-31T03:25:02.981Z,98057.32
2018-07-31T03:27:34.677Z,98055.16
2018-07-31T03:30:07.124Z,98049.55
2018-07-31T03:32:38.966Z,98051.38
2018-07-31T03:35:10.792Z,98064.34
2018-07-31T03:37:42.615Z,98064.34
2018-07-31T03:40:14.355Z,98068.34
2018-07-31T03:42:46.149Z,98068.51
2018-07-31T03:45:17.806Z,98054.06
2018-07-31T03:47:49.759Z,98058.37
2018-07-31T03:50:21.268Z,98047.08
2018-07-31T03:52:53.041Z,98044.63
2018-07-31T03:55:24.883Z,98047.08
2018-07-31T03:57:56.487Z,98045.96
2018-07-31T04:00:28.293Z,98043.80
2018-07-31T04:02:59.968Z,98052.11
2018-07-31T04:05:31.766Z,98055.27
2018-07-31T04:08:03.686Z,98061.41
2018-07-31T04:10:35.198Z,98060.25
2018-07-31T04:13:06.805Z,98063.59
2018-07-31T04:15:38.759Z,98070.56
2018-07-31T04:18:10.385Z,98070.06
2018-07-31T04:20:42.186Z,98070.06
2018-07-31T04:23:13.903Z,98076.20
2018-07-31T04:25:45.736Z,98075.38
2018-07-31T04:28:17.405Z,98079.88
2018-07-31T04:30:49.274Z,98087.72
2018-07-31T04:33:20.877Z,98088.48
2018-07-31T04:35:52.395Z,98094.18
2018-07-31T04:38:24.339Z,98099.34
2018-07-31T04:40:56.021Z,98099.05
2018-07-31T04:43:27.649Z,98099.83
2018-07-31T04:45:59.438Z,98094.14
2018-07-31T04:48:31.153Z,98095.47
2018-07-31T04:51:03.248Z,98102.09
2018-07-31T04:53:34.738Z,98102.38
2018-07-31T04:56:06.469Z,98103.54
2018-07-31T04:58:38.087Z,98096.73
2018-07-31T05:01:09.844Z,98101.21
2018-07-31T05:03:41.184Z,98101.34
2018-07-31T05:06:12.750Z,98101.01
2018-07-31T05:08:44.675Z,98096.85
2018-07-31T05:11:16.610Z,98099.51
2018-07-31T05:13:49.452Z,98097.35
2018-07-31T05:16:21.156Z,98096.02
2018-07-31T05:18:52.822Z,98106.66
2018-07-31T05:21:24.975Z,98102.16
2018-07-31T05:23:57.879Z,98103.86
2018-07-31T05:26:29.795Z,98108.67
2018-07-31T05:29:01.702Z,98105.33
2018-07-31T05:31:33.362Z,98108.69
2018-07-31T05:34:05.384Z,98106.37
2018-07-31T05:36:38.058Z,98112.02
2018-07-31T05:39:13.228Z,98124.10
2018-07-31T05:41:45.183Z,98114.80
2018-07-31T05:44:17.130Z,98122.27
2018-07-31T05:46:49.647Z,98123.80
2018-07-31T05:49:21.758Z,98126.63
2018-07-31T05:51:54.132Z,98130.25
2018-07-31T05:54:26.957Z,98131.91
2018-07-31T05:56:59.468Z,98134.73
2018-07-31T05:59:31.457Z,98126.27
2018-07-31T06:02:04.105Z,98131.58
2018-07-31T06:04:35.687Z,98131.41
2018-07-31T06:07:07.662Z,98130.94
2018-07-31T06:09:39.739Z,98130.77
2018-07-31T06:12:11.437Z,98137.58
2018-07-31T06:14:43.908Z,98138.55
2018-07-31T06:17:15.106Z,98132.27
2018-07-31T06:19:46.643Z,98140.24
2018-07-31T06:22:18.682Z,98140.24
2018-07-31T06:24:50.976Z,98133.92
2018-07-31T06:27:23.744Z,98137.58
2018-07-31T06:29:55.831Z,98139.55
2018-07-31T06:32:27.787Z,98142.90
2018-07-31T06:34:59.946Z,98142.53
2018-07-31T06:37:31.708Z,98137.91
2018-07-31T06:40:03.441Z,98141.90
2018-07-31T06:42:35.374Z,98135.25
2018-07-31T06:45:08.156Z,98124.63
2018-07-31T06:47:39.761Z,98124.95
2018-07-31T06:50:11.761Z,98127.61
2018-07-31T06:52:43.576Z,98121.96
2018-07-31T06:55:15.113Z,98125.13
2018-07-31T06:57:47.149Z,98115.82
2018-07-31T07:00:19.048Z,98119.30
2018-07-31T07:02:50.858Z,98119.30
2018-07-31T07:05:22.610Z,98120.29
2018-07-31T07:07:54.108Z,98119.63
2018-07-31T07:10:25.788Z,98118.30
2018-07-31T07:12:57.476Z,98118.63
2018-07-31T07:15:29.726Z,98113.66
2018-07-31T07:18:01.577Z,98105.52
2018-07-31T07:20:33.754Z,98103.99
2018-07-31T07:23:05.697Z,98098.54
2018-07-31T07:25:37.569Z,98101.03
2018-07-31T07:28:09.249Z,98091.39
2018-07-31T07:30:41.051Z,98093.05
2018-07-31T07:33:13.039Z,98088.23
2018-07-31T07:35:44.802Z,98092.03
2018-07-31T07:38:16.565Z,98096.70
2018-07-31T07:40:52.923Z,98086.72
2018-07-31T07:43:24.592Z,98084.42
2018-07-31T07:45:56.325Z,98083.75
2018-07-31T07:48:28.108Z,98077.27
2018-07-31T07:51:00.146Z,98074.44
2018-07-31T07:53:31.821Z,98067.97
2018-07-31T07:56:03.343Z,98064.95
2018-07-31T07:58:35.048Z,98069.12
2018-07-31T08:01:06.840Z,98070.08
2018-07-31T08:03:38.809Z,98065.14
2018-07-31T08:06:10.726Z,98060.15
2018-07-31T08:08:42.558Z,98050.19
2018-07-31T08:17:15.504Z,98038.94
2018-07-31T08:19:47.649Z,98035.78
2018-07-31T08:22:19.478Z,98036.66
2018-07-31T08:24:51.293Z,98028.03
2018-07-31T08:27:23.041Z,98027.37
2018-07-31T08:29:54.900Z,98024.52
2018-07-31T08:32:26.908Z,98022.71
2018-07-31T08:34:58.669Z,98018.17
2018-07-31T08:37:30.470Z,98017.98
2018-07-31T08:40:02.228Z,98012.34
2018-07-31T08:42:33.972Z,98003.54
2018-07-31T08:45:05.841Z,97998.40
2018-07-31T08:47:37.816Z,97998.72
2018-07-31T08:50:09.298Z,97994.73
2018-07-31T08:52:41.070Z,97991.25
2018-07-31T08:55:12.646Z,97991.25
2018-07-31T08:57:44.046Z,97987.94
2018-07-31T09:00:15.767Z,97982.13
2018-07-31T09:02:47.744Z,97976.48
2018-07-31T09:05:19.529Z,97973.00
2018-07-31T09:07:51.361Z,97969.84
2018-07-31T09:10:23.019Z,97969.54
2018-07-31T09:12:54.609Z,97969.84
2018-07-31T09:15:26.357Z,97963.52
2018-07-31T09:17:58.733Z,97959.20
2018-07-31T09:20:31.921Z,97956.05
2018-07-31T09:23:53.450Z,97945.52
2018-07-31T09:26:27.538Z,97947.50
2018-07-31T09:28:59.488Z,97946.77
2018-07-31T09:31:31.356Z,97938.02
2018-07-31T09:34:03.226Z,97939.66
2018-07-31T09:36:34.696Z,97939.98
2018-07-31T09:39:08.796Z,97932.34
2018-07-31T09:41:40.252Z,97929.97
2018-07-31T09:44:12.043Z,97924.98
2018-07-31T09:46:43.767Z,97927.14
2018-07-31T09:49:15.556Z,97926.96
2018-07-31T09:51:47.414Z,97919.81
2018-07-31T09:54:19.027Z,97913.50
2018-07-31T09:56:50.907Z,97911.67
2018-07-31T09:59:22.582Z,97905.64
2018-07-31T10:01:54.405Z,97901.66
2018-07-31T10:04:26.001Z,97902.16
2018-07-31T10:06:57.738Z,97895.84
2018-07-31T10:09:29.591Z,97888.38
2018-07-31T10:12:01.498Z,97887.04
2018-07-31T10:14:33.308Z,97882.73
2018-07-31T10:17:05.000Z,97877.85
2018-07-31T10:19:36.790Z,97877.06
2018-07-31T10:22:09.722Z,97880.52
2018-07-31T10:24:41.383Z,97875.05
2018-07-31T10:27:12.957Z,97865.33
2018-07-31T10:29:44.983Z,97870.27
2018-07-31T10:55:01.993Z,97847.28
2018-07-31T10:57:33.821Z,97849.08
2018-07-31T11:00:05.945Z,97844.77
2018-07-31T11:02:37.784Z,97842.11
2018-07-31T11:05:09.869Z,97844.27
2018-07-31T11:07:41.648Z,97839.78
2018-07-31T11:10:13.551Z,97845.09
2018-07-31T11:12:45.337Z,97841.61
2018-07-31T11:15:17.147Z,97838.13
2018-07-31T11:17:48.975Z,97841.28
2018-07-31T11:20:20.105Z,97836.47
2018-07-31T11:22:52.964Z,97834.64
2018-07-31T11:25:24.589Z,97831.48
2018-07-31T11:27:56.290Z,97831.80
2018-07-31T11:30:27.860Z,97830.80
2018-07-31T11:32:59.748Z,97827.31
2018-07-31T11:35:31.415Z,97831.13
2018-07-31T11:38:03.354Z,97823.47
2018-07-31T11:40:35.325Z,97826.13
2018-07-31T11:43:07.250Z,97826.42
2018-07-31T11:45:39.139Z,97828.79
2018-07-31T11:48:11.236Z,97828.47
2018-07-31T11:50:43.458Z,97825.30
2018-07-31T11:53:15.472Z,97823.47
2018-07-31T11:55:47.519Z,97827.75
2018-07-31T11:58:19.476Z,97822.64
2018-07-31T12:00:51.320Z,97824.48
2018-07-31T12:03:23.232Z,97820.49
2018-07-31T12:05:55.007Z,97822.32
2018-07-31T12:08:27.101Z,97819.98
2018-07-31T12:10:58.977Z,97822.83
2018-07-31T12:13:30.749Z,97825.84
2018-07-31T12:16:02.438Z,97828.14
2018-07-31T12:18:34.264Z,97824.80
2018-07-31T12:21:06.115Z,97825.92
2018-07-31T12:23:38.814Z,97825.09
2018-07-31T12:26:10.920Z,97824.80
2018-07-31T12:28:42.653Z,97821.67
2018-07-31T12:31:14.591Z,97823.83
2018-07-31T12:33:46.657Z,97824.80
2018-07-31T12:36:18.668Z,97829.08
2018-07-31T12:38:50.455Z,97829.08
2018-07-31T12:41:22.225Z,97836.23
2018-07-31T12:43:54.054Z,97836.44
2018-07-31T12:46:25.832Z,97837.77
2018-07-31T12:48:57.734Z,97835.44
2018-07-31T12:51:29.301Z,97843.09
2018-07-31T12:54:01.280Z,97840.75
2018-07-31T12:56:33.376Z,97843.70
2018-07-31T12:59:05.208Z,97850.34
2018-07-31T13:01:37.042Z,97845.75
2018-07-31T13:04:09.048Z,97845.53
2018-07-31T13:06:40.803Z,97845.53
2018-07-31T13:09:12.640Z,97855.16
2018-07-31T13:11:44.221Z,97856.49
2018-07-31T13:14:16.063Z,97855.16
2018-07-31T13:16:47.632Z,97856.38
2018-07-31T13:19:20.035Z,97855.67
2018-07-31T13:21:52.150Z,97861.63
2018-07-31T13:24:25.021Z,97868.78
2018-07-31T13:26:56.970Z,97870.61
2018-07-31T13:29:28.839Z,97870.61
2018-07-31T13:32:00.711Z,97880.92
2018-07-31T13:34:33.059Z,97875.61
2018-07-31T13:37:04.979Z,97880.42
2018-07-31T13:39:37.781Z,97879.92
2018-07-31T13:42:09.864Z,97886.56
2018-07-31T13:44:41.873Z,97890.55
2018-07-31T13:47:14.064Z,97894.03
2018-07-31T13:49:45.829Z,97901.52
2018-07-31T13:52:17.872Z,97902.84
2018-07-31T13:54:49.646Z,97905.83
2018-07-31T13:57:21.345Z,97911.14
2018-07-31T13:59:52.826Z,97911.47
2018-07-31T14:02:24.612Z,97912.47
2018-07-31T14:04:56.510Z,97922.10
2018-07-31T14:07:28.144Z,97921.27
2018-07-31T14:09:59.977Z,97927.92
2018-07-31T14:12:31.768Z,97928.09
2018-07-31T14:15:03.768Z,97934.06
2018-07-31T14:17:35.632Z,97930.91
2018-07-31T14:20:07.432Z,97935.01
2018-07-31T14:22:39.135Z,97942.48
2018-07-31T14:25:12.432Z,97945.35
2018-07-31T14:27:44.290Z,97940.39
2018-07-31T14:30:15.874Z,97948.36
2018-07-31T14:32:47.610Z,97940.89
2018-07-31T14:35:19.263Z,97946.70
2018-07-31T14:37:51.314Z,97952.03
2018-07-31T14:40:23.097Z,97954.66
2018-07-31T14:42:54.884Z,97950.61
2018-07-31T14:45:26.707Z,97954.27
2018-07-31T14:47:58.481Z,97954.66
2018-07-31T14:50:30.342Z,97954.03
2018-07-31T14:53:02.042Z,97957.02
2018-07-31T14:55:33.740Z,97952.03
2018-07-31T14:58:05.577Z,97955.01
2018-07-31T15:00:37.612Z,97955.34
2018-07-31T15:03:09.448Z,97962.98
2018-07-31T15:05:41.359Z,97973.13
2018-07-31T15:08:13.210Z,97982.25
2018-07-31T15:10:45.646Z,97989.73
2018-07-31T15:13:17.380Z,97984.25
2018-07-31T15:15:49.344Z,97983.93
2018-07-31T15:18:21.048Z,97982.60
2018-07-31T15:20:52.907Z,97986.91
2018-07-31T15:23:24.820Z,97984.08
2018-07-31T15:25:57.282Z,97978.77
2018-07-31T15:28:29.165Z,97983.25
2018-07-31T15:31:00.994Z,97983.58
2018-07-31T15:33:32.883Z,97991.55
2018-07-31T15:36:04.577Z,97996.55
2018-07-31T15:38:36.655Z,98003.84
2018-07-31T15:41:08.416Z,98007.19
2018-07-31T15:43:40.296Z,98022.45
2018-07-31T15:46:12.368Z,98026.13
2018-07-31T15:48:44.111Z,98025.80
2018-07-31T15:51:15.985Z,98025.80
2018-07-31T15:53:47.740Z,98024.14
2018-07-31T15:56:19.480Z,98026.47
2018-07-31T15:58:51.339Z,98029.45
2018-07-31T16:01:23.037Z,98024.47
2018-07-31T16:03:54.813Z,98027.63
2018-07-31T16:06:26.527Z,98019.15
2018-07-31T16:08:58.403Z,98026.30
2018-07-31T16:11:30.324Z,98021.48
2018-07-31T16:14:01.999Z,98021.48
2018-07-31T16:16:33.742Z,98024.47
2018-07-31T16:19:05.304Z,98022.63
2018-07-31T16:21:37.223Z,98033.77
2018-07-31T16:24:09.059Z,98020.66
2018-07-31T16:26:41.813Z,98017.49
2018-07-31T16:29:13.695Z,98021.48
2018-07-31T16:31:45.586Z,98018.82
2018-07-31T16:34:17.510Z,98020.15
2018-07-31T16:36:49.436Z,98021.16
2018-07-31T16:39:21.110Z,98018.82
2018-07-31T16:41:52.676Z,98014.50
2018-07-31T16:44:24.453Z,98013.50
2018-07-31T16:46:56.287Z,98015.66
2018-07-31T16:49:28.164Z,98006.53
2018-07-31T16:51:59.952Z,98016.48
2018-07-31T16:56:55.051Z,98019.15
2018-07-31T16:59:26.823Z,98010.52
2018-07-31T17:01:58.325Z,98014.33
2018-07-31T17:04:30.168Z,98012.67
2018-07-31T17:07:01.972Z,98012.50
2018-07-31T17:09:34.277Z,98013.50
2018-07-31T17:12:06.126Z,98012.17
2018-07-31T17:14:38.043Z,98017.02
2018-07-31T17:17:09.904Z,98023.16
2018-07-31T17:19:41.727Z,98017.16
2018-07-31T17:22:13.404Z,98013.17
2018-07-31T17:24:45.217Z,98013.50
2018-07-31T17:27:17.789Z,98018.34
2018-07-31T17:29:49.586Z,98015.18
2018-07-31T17:32:21.417Z,98008.53
2018-07-31T17:34:53.490Z,97999.55
2018-07-31T17:37:25.387Z,97990.58
2018-07-31T17:39:57.132Z,97988.92
2018-07-31T17:42:28.933Z,97990.58
2018-07-31T17:45:00.661Z,97994.23
2018-07-31T17:47:32.396Z,98003.87
2018-07-31T17:50:04.297Z,98005.78
2018-07-31T17:52:36.144Z,98005.60
2018-07-31T17:55:07.579Z,97997.45
2018-07-31T17:57:39.531Z,97996.78
2018-07-31T18:00:11.667Z,97996.90
2018-07-31T18:02:43.681Z,98010.07
2018-07-31T18:05:15.445Z,98004.42
2018-07-31T18:07:47.247Z,98043.59
2018-07-31T18:10:18.844Z,98129.44
2018-07-31T18:12:50.575Z,98089.95
2018-07-31T18:15:22.470Z,98075.70
2018-07-31T18:17:54.309Z,98085.52
2018-07-31T18:20:25.944Z,98079.70
2018-07-31T18:22:57.785Z,98054.78
2018-07-31T18:25:29.531Z,98015.96
2018-07-31T18:28:02.573Z,97994.05
2018-07-31T18:33:04.999Z,98013.98
2018-07-31T18:35:36.898Z,98054.82
2018-07-31T18:38:08.689Z,98061.66
2018-07-31T18:40:40.551Z,98057.84
2018-07-31T18:43:12.363Z,98087.08
2018-07-31T18:45:44.085Z,98084.75
2018-07-31T18:48:15.899Z,98088.09
2018-07-31T18:50:47.725Z,98092.73
2018-07-31T18:53:19.652Z,98100.18
2018-07-31T18:55:51.748Z,98105.20
2018-07-31T18:58:23.284Z,98113.52
2018-07-31T19:00:55.510Z,98113.16
2018-07-31T19:03:27.375Z,98109.00
2018-07-31T19:05:59.220Z,98104.19
2018-07-31T19:08:30.990Z,98109.33
2018-07-31T19:11:02.996Z,98107.67
2018-07-31T19:13:34.834Z,98109.00
2018-07-31T19:16:06.710Z,98109.83
2018-07-31T19:18:38.340Z,98121.96
2018-07-31T19:21:10.143Z,98129.77
2018-07-31T19:23:41.628Z,98139.70
2018-07-31T19:26:13.679Z,98155.15
2018-07-31T19:28:46.606Z,98184.05
2018-07-31T19:31:18.437Z,98199.67
2018-07-31T19:33:50.291Z,98191.73
2018-07-31T19:36:22.546Z,98191.41
2018-07-31T19:38:54.465Z,98187.75
2018-07-31T19:41:26.260Z,98184.44
2018-07-31T19:43:57.943Z,98182.77
2018-07-31T19:46:29.768Z,98184.44
2018-07-31T19:49:01.264Z,98191.23
2018-07-31T19:51:33.029Z,98199.67
2018-07-31T19:54:04.618Z,98201.87
2018-07-31T19:56:36.430Z,98217.16
2018-07-31T19:59:08.314Z,98202.70
2018-07-31T20:01:40.170Z,98195.88
2018-07-31T20:04:12.039Z,98209.03
2018-07-31T20:06:43.577Z,98192.27
2018-07-31T20:09:19.877Z,98176.69
2018-07-31T20:11:51.821Z,98176.19
2018-07-31T20:14:23.873Z,98177.85
2018-07-31T20:16:56.593Z,98171.58
2018-07-31T20:19:27.978Z,98162.27
2018-07-31T20:22:00.908Z,98134.71
2018-07-31T20:24:32.651Z,98091.16
2018-07-31T20:27:04.477Z,98055.94
2018-07-31T20:29:37.002Z,98049.12
2018-07-31T20:32:08.805Z,98025.88
2018-07-31T20:34:41.143Z,98031.02
2018-07-31T20:37:13.174Z,98026.03
2018-07-31T20:39:45.220Z,98038.66
2018-07-31T20:42:17.008Z,98055.28
2018-07-31T20:44:48.942Z,98060.25
2018-07-31T20:47:20.623Z,98047.63
2018-07-31T20:49:52.397Z,98033.34
2018-07-31T20:52:24.349Z,98033.00
2018-07-31T20:54:56.158Z,98025.85
2018-07-31T20:57:28.116Z,98008.75
2018-07-31T20:59:59.853Z,98003.11
2018-07-31T21:02:31.583Z,98003.61
2018-07-31T21:05:03.415Z,97993.16
2018-07-31T21:07:35.235Z,97996.47
2018-07-31T21:10:07.269Z,97986.01
2018-07-31T21:12:39.128Z,97974.55
2018-07-31T21:15:10.907Z,97970.89
2018-07-31T21:17:42.545Z,97969.56
2018-07-31T21:20:14.505Z,97967.58
2018-07-31T21:22:46.320Z,97979.42
2018-07-31T21:25:18.204Z,97980.54
2018-07-31T21:27:50.049Z,97985.23
2018-07-31T21:30:21.847Z,97988.89
2018-07-31T21:32:53.385Z,97981.75
2018-07-31T21:35:25.993Z,97976.93
2018-07-31T21:37:57.594Z,97978.27
2018-07-31T21:40:29.037Z,97975.10
2018-07-31T21:43:00.604Z,97972.95
2018-07-31T21:45:32.347Z,97965.65
2018-07-31T21:48:03.976Z,97969.13
2018-07-31T21:50:35.910Z,97956.02
2018-07-31T21:53:07.637Z,97962.99
2018-07-31T21:55:39.378Z,97955.19
2018-07-31T21:58:11.370Z,97960.84
2018-07-31T22:00:47.687Z,97964.82
2018-07-31T22:03:19.500Z,97957.34
2018-07-31T22:05:51.484Z,97951.70
2018-07-31T22:08:23.625Z,97941.08
2018-07-31T22:10:55.333Z,97932.61
2018-07-31T22:13:28.033Z,97923.19
2018-07-31T22:15:59.954Z,97920.86
2018-07-31T22:18:32.020Z,97908.58
2018-07-31T22:21:03.796Z,97908.58
2018-07-31T22:23:35.580Z,97913.51
2018-07-31T22:26:07.489Z,97900.93
2018-07-31T22:28:39.171Z,97897.45
2018-07-31T22:31:11.020Z,97896.94
2018-07-31T22:33:42.907Z,97897.30
2018-07-31T22:36:16.340Z,97896.47
2018-07-31T22:38:48.100Z,97896.14
2018-07-31T22:41:19.913Z,97900.95
2018-07-31T22:43:51.810Z,97903.61
2018-07-31T22:46:23.688Z,97908.92
2018-07-31T22:48:55.494Z,97912.58
2018-07-31T22:51:27.354Z,97906.44
2018-07-31T22:53:59.255Z,97908.59
2018-07-31T22:56:30.961Z,97909.80
2018-07-31T22:59:02.719Z,97910.30
2018-07-31T23:01:35.015Z,97914.29
2018-07-31T23:04:07.069Z,97914.29
2018-07-31T23:06:39.000Z,97913.79
2018-07-31T23:09:12.696Z,97910.48
2018-07-31T23:11:44.314Z,97913.97
2018-07-31T23:14:16.051Z,97917.63
2018-07-31T23:16:47.848Z,97917.30
2018-07-31T23:19:19.537Z,97912.16
2018-07-31T23:21:51.283Z,97922.28
2018-07-31T23:24:22.956Z,97922.28
2018-07-31T23:26:54.869Z,97923.61
2018-07-31T23:29:26.701Z,97922.28
2018-07-31T23:31:58.618Z,97925.64
2018-07-31T23:34:30.195Z,97923.40
2018-07-31T23:37:03.627Z,97925.38
2018-07-31T23:39:35.389Z,97930.04
2018-07-31T23:42:06.966Z,97927.88
2018-07-31T23:44:38.571Z,97928.04
2018-07-31T23:47:10.620Z,97922.72
2018-07-31T23:49:42.329Z,97918.74
2018-07-31T23:52:14.180Z,97920.57
2018-07-31T23:54:46.095Z,97919.74
2018-07-31T23:57:18.098Z,97925.73
2018-07-31T23:59:49.861Z,97921.24
